<?xml version="1.0" encoding="UTF-8" standalone="no" ?>
<gpx xmlns="http://www.topografix.com/GPX/1/1" xmlns:xsi="http://www.w3.org/2001/XMLSchema-instance" xsi:schemaLocation="http://www.topografix.com/GPX/1/1 http://www.topografix.com/GPX/1/1/gpx.xsd" version="1.1" creator="VisuGPX - https://www.visugpx.com">
  <metadata>
    <name>L Aulp Du Seuil</name>
    <desc><![CDATA[grp_trc:[nouvelles]]]></desc>
  </metadata>
  <trk>
    <name><![CDATA[18 sept. 2021 à 14:01:03]]></name>
    <cmt><![CDATA[18 sept. 2021 à 14:01:03]]></cmt>
    <trkseg>
      <trkpt lat="45.46246" lon="5.8417">
        <ele>1464</ele>
        <time>2021-09-18T12:01:07Z</time>
      </trkpt>
      <trkpt lat="45.46244" lon="5.84178">
        <ele>1465</ele>
        <time>2021-09-18T12:02:08Z</time>
      </trkpt>
      <trkpt lat="45.4626" lon="5.84176">
        <ele>1465</ele>
        <time>2021-09-18T12:02:25Z</time>
      </trkpt>
      <trkpt lat="45.46274" lon="5.84186">
        <ele>1467</ele>
        <time>2021-09-18T12:02:39Z</time>
      </trkpt>
      <trkpt lat="45.46279" lon="5.84191">
        <ele>1467</ele>
        <time>2021-09-18T12:02:45Z</time>
      </trkpt>
      <trkpt lat="45.46284" lon="5.84196">
        <ele>1468</ele>
        <time>2021-09-18T12:02:53Z</time>
      </trkpt>
      <trkpt lat="45.46292" lon="5.84198">
        <ele>1470</ele>
        <time>2021-09-18T12:03:05Z</time>
      </trkpt>
      <trkpt lat="45.46304" lon="5.84205">
        <ele>1471</ele>
        <time>2021-09-18T12:03:19Z</time>
      </trkpt>
      <trkpt lat="45.46309" lon="5.842">
        <ele>1472</ele>
        <time>2021-09-18T12:03:30Z</time>
      </trkpt>
      <trkpt lat="45.46318" lon="5.84212">
        <ele>1474</ele>
        <time>2021-09-18T12:03:50Z</time>
      </trkpt>
      <trkpt lat="45.46329" lon="5.84217">
        <ele>1477</ele>
        <time>2021-09-18T12:04:07Z</time>
      </trkpt>
      <trkpt lat="45.46333" lon="5.84223">
        <ele>1479</ele>
        <time>2021-09-18T12:04:19Z</time>
      </trkpt>
      <trkpt lat="45.46338" lon="5.84227">
        <ele>1479</ele>
        <time>2021-09-18T12:04:25Z</time>
      </trkpt>
      <trkpt lat="45.46361" lon="5.84239">
        <ele>1484</ele>
        <time>2021-09-18T12:04:59Z</time>
      </trkpt>
      <trkpt lat="45.46367" lon="5.84241">
        <ele>1484</ele>
        <time>2021-09-18T12:05:07Z</time>
      </trkpt>
      <trkpt lat="45.46377" lon="5.8425">
        <ele>1485</ele>
        <time>2021-09-18T12:05:17Z</time>
      </trkpt>
      <trkpt lat="45.46383" lon="5.84253">
        <ele>1484</ele>
        <time>2021-09-18T12:05:23Z</time>
      </trkpt>
      <trkpt lat="45.46387" lon="5.84259">
        <ele>1484</ele>
        <time>2021-09-18T12:05:29Z</time>
      </trkpt>
      <trkpt lat="45.46393" lon="5.84268">
        <ele>1485</ele>
        <time>2021-09-18T12:05:40Z</time>
      </trkpt>
      <trkpt lat="45.46404" lon="5.843">
        <ele>1489</ele>
        <time>2021-09-18T12:06:16Z</time>
      </trkpt>
      <trkpt lat="45.46409" lon="5.84309">
        <ele>1490</ele>
        <time>2021-09-18T12:06:28Z</time>
      </trkpt>
      <trkpt lat="45.46418" lon="5.84335">
        <ele>1497</ele>
        <time>2021-09-18T12:07:08Z</time>
      </trkpt>
      <trkpt lat="45.46428" lon="5.84341">
        <ele>1499</ele>
        <time>2021-09-18T12:07:22Z</time>
      </trkpt>
      <trkpt lat="45.46431" lon="5.84349">
        <ele>1502</ele>
        <time>2021-09-18T12:07:34Z</time>
      </trkpt>
      <trkpt lat="45.46433" lon="5.84358">
        <ele>1501</ele>
        <time>2021-09-18T12:07:46Z</time>
      </trkpt>
      <trkpt lat="45.46436" lon="5.84368">
        <ele>1507</ele>
        <time>2021-09-18T12:08:04Z</time>
      </trkpt>
      <trkpt lat="45.46443" lon="5.84374">
        <ele>1511</ele>
        <time>2021-09-18T12:08:30Z</time>
      </trkpt>
      <trkpt lat="45.46449" lon="5.84378">
        <ele>1513</ele>
        <time>2021-09-18T12:08:50Z</time>
      </trkpt>
      <trkpt lat="45.46453" lon="5.84386">
        <ele>1517</ele>
        <time>2021-09-18T12:09:18Z</time>
      </trkpt>
      <trkpt lat="45.46461" lon="5.8439">
        <ele>1520</ele>
        <time>2021-09-18T12:09:48Z</time>
      </trkpt>
      <trkpt lat="45.46466" lon="5.84395">
        <ele>1527</ele>
        <time>2021-09-18T12:10:12Z</time>
      </trkpt>
      <trkpt lat="45.46472" lon="5.84414">
        <ele>1533</ele>
        <time>2021-09-18T12:10:42Z</time>
      </trkpt>
      <trkpt lat="45.4648" lon="5.84413">
        <ele>1534</ele>
        <time>2021-09-18T12:10:56Z</time>
      </trkpt>
      <trkpt lat="45.46487" lon="5.84411">
        <ele>1540</ele>
        <time>2021-09-18T12:11:32Z</time>
      </trkpt>
      <trkpt lat="45.46491" lon="5.84417">
        <ele>1544</ele>
        <time>2021-09-18T12:11:56Z</time>
      </trkpt>
      <trkpt lat="45.46494" lon="5.84427">
        <ele>1547</ele>
        <time>2021-09-18T12:12:10Z</time>
      </trkpt>
      <trkpt lat="45.46499" lon="5.84419">
        <ele>1551</ele>
        <time>2021-09-18T12:12:34Z</time>
      </trkpt>
      <trkpt lat="45.46506" lon="5.84418">
        <ele>1553</ele>
        <time>2021-09-18T12:12:53Z</time>
      </trkpt>
      <trkpt lat="45.46508" lon="5.84423">
        <ele>1555</ele>
        <time>2021-09-18T12:13:05Z</time>
      </trkpt>
      <trkpt lat="45.46514" lon="5.84423">
        <ele>1558</ele>
        <time>2021-09-18T12:13:35Z</time>
      </trkpt>
      <trkpt lat="45.4652" lon="5.84429">
        <ele>1565</ele>
        <time>2021-09-18T12:14:23Z</time>
      </trkpt>
      <trkpt lat="45.46515" lon="5.84436">
        <ele>1568</ele>
        <time>2021-09-18T12:14:47Z</time>
      </trkpt>
      <trkpt lat="45.46512" lon="5.84444">
        <ele>1571</ele>
        <time>2021-09-18T12:16:39Z</time>
      </trkpt>
      <trkpt lat="45.46511" lon="5.84452">
        <ele>1572</ele>
        <time>2021-09-18T12:16:47Z</time>
      </trkpt>
      <trkpt lat="45.4651" lon="5.8446">
        <ele>1571</ele>
        <time>2021-09-18T12:16:59Z</time>
      </trkpt>
      <trkpt lat="45.46514" lon="5.84467">
        <ele>1571</ele>
        <time>2021-09-18T12:17:11Z</time>
      </trkpt>
      <trkpt lat="45.46514" lon="5.84475">
        <ele>1571</ele>
        <time>2021-09-18T12:17:22Z</time>
      </trkpt>
      <trkpt lat="45.46515" lon="5.84486">
        <ele>1569</ele>
        <time>2021-09-18T12:17:40Z</time>
      </trkpt>
      <trkpt lat="45.46516" lon="5.84496">
        <ele>1568</ele>
        <time>2021-09-18T12:17:57Z</time>
      </trkpt>
      <trkpt lat="45.46519" lon="5.84505">
        <ele>1570</ele>
        <time>2021-09-18T12:18:09Z</time>
      </trkpt>
      <trkpt lat="45.46521" lon="5.84513">
        <ele>1568</ele>
        <time>2021-09-18T12:18:27Z</time>
      </trkpt>
      <trkpt lat="45.46521" lon="5.84522">
        <ele>1569</ele>
        <time>2021-09-18T12:18:45Z</time>
      </trkpt>
      <trkpt lat="45.46525" lon="5.84528">
        <ele>1569</ele>
        <time>2021-09-18T12:18:57Z</time>
      </trkpt>
      <trkpt lat="45.46529" lon="5.84539">
        <ele>1570</ele>
        <time>2021-09-18T12:19:09Z</time>
      </trkpt>
      <trkpt lat="45.46534" lon="5.84543">
        <ele>1571</ele>
        <time>2021-09-18T12:19:21Z</time>
      </trkpt>
      <trkpt lat="45.46539" lon="5.84539">
        <ele>1582</ele>
        <time>2021-09-18T12:21:03Z</time>
      </trkpt>
      <trkpt lat="45.46545" lon="5.84544">
        <ele>1587</ele>
        <time>2021-09-18T12:22:25Z</time>
      </trkpt>
      <trkpt lat="45.46545" lon="5.84543">
        <ele>1599</ele>
        <time>2021-09-18T12:26:54Z</time>
      </trkpt>
      <trkpt lat="45.4655" lon="5.84551">
        <ele>1600</ele>
        <time>2021-09-18T12:27:13Z</time>
      </trkpt>
      <trkpt lat="45.46556" lon="5.84547">
        <ele>1602</ele>
        <time>2021-09-18T12:27:31Z</time>
      </trkpt>
      <trkpt lat="45.46558" lon="5.84538">
        <ele>1604</ele>
        <time>2021-09-18T12:28:07Z</time>
      </trkpt>
      <trkpt lat="45.46564" lon="5.84532">
        <ele>1611</ele>
        <time>2021-09-18T12:29:14Z</time>
      </trkpt>
      <trkpt lat="45.46561" lon="5.84522">
        <ele>1615</ele>
        <time>2021-09-18T12:29:57Z</time>
      </trkpt>
      <trkpt lat="45.46557" lon="5.84524">
        <ele>1616</ele>
        <time>2021-09-18T12:31:06Z</time>
      </trkpt>
      <trkpt lat="45.46552" lon="5.84516">
        <ele>1622</ele>
        <time>2021-09-18T12:32:12Z</time>
      </trkpt>
      <trkpt lat="45.46552" lon="5.84513">
        <ele>1626</ele>
        <time>2021-09-18T12:33:12Z</time>
      </trkpt>
      <trkpt lat="45.46546" lon="5.84494">
        <ele>1635</ele>
        <time>2021-09-18T12:34:57Z</time>
      </trkpt>
      <trkpt lat="45.46553" lon="5.84498">
        <ele>1639</ele>
        <time>2021-09-18T12:36:10Z</time>
      </trkpt>
      <trkpt lat="45.46557" lon="5.84488">
        <ele>1647</ele>
        <time>2021-09-18T12:37:55Z</time>
      </trkpt>
      <trkpt lat="45.46562" lon="5.84484">
        <ele>1652</ele>
        <time>2021-09-18T12:38:31Z</time>
      </trkpt>
      <trkpt lat="45.46564" lon="5.8448">
        <ele>1650</ele>
        <time>2021-09-18T12:38:43Z</time>
      </trkpt>
      <trkpt lat="45.46569" lon="5.84483">
        <ele>1652</ele>
        <time>2021-09-18T12:39:02Z</time>
      </trkpt>
      <trkpt lat="45.46568" lon="5.84489">
        <ele>1646</ele>
        <time>2021-09-18T12:39:20Z</time>
      </trkpt>
      <trkpt lat="45.46574" lon="5.84488">
        <ele>1653</ele>
        <time>2021-09-18T12:40:21Z</time>
      </trkpt>
      <trkpt lat="45.46574" lon="5.84479">
        <ele>1653</ele>
        <time>2021-09-18T12:41:17Z</time>
      </trkpt>
      <trkpt lat="45.46569" lon="5.84474">
        <ele>1653</ele>
        <time>2021-09-18T12:41:24Z</time>
      </trkpt>
      <trkpt lat="45.46656" lon="5.84716">
        <ele>1665</ele>
        <time>2021-09-18T13:45:09Z</time>
      </trkpt>
      <trkpt lat="45.46652" lon="5.84719">
        <ele>1696</ele>
        <time>2021-09-18T13:55:18Z</time>
      </trkpt>
      <trkpt lat="45.46653" lon="5.84717">
        <ele>1693</ele>
        <time>2021-09-18T14:01:34Z</time>
      </trkpt>
      <trkpt lat="45.46651" lon="5.84708">
        <ele>1693</ele>
        <time>2021-09-18T14:02:25Z</time>
      </trkpt>
      <trkpt lat="45.46664" lon="5.84691">
        <ele>1687</ele>
        <time>2021-09-18T14:02:57Z</time>
      </trkpt>
      <trkpt lat="45.46669" lon="5.84685">
        <ele>1686</ele>
        <time>2021-09-18T14:03:02Z</time>
      </trkpt>
      <trkpt lat="45.46671" lon="5.84699">
        <ele>1683</ele>
        <time>2021-09-18T14:03:56Z</time>
      </trkpt>
      <trkpt lat="45.46673" lon="5.84706">
        <ele>1683</ele>
        <time>2021-09-18T14:04:00Z</time>
      </trkpt>
      <trkpt lat="45.46679" lon="5.8472">
        <ele>1683</ele>
        <time>2021-09-18T14:04:10Z</time>
      </trkpt>
      <trkpt lat="45.46683" lon="5.84728">
        <ele>1681</ele>
        <time>2021-09-18T14:04:18Z</time>
      </trkpt>
      <trkpt lat="45.46691" lon="5.84736">
        <ele>1680</ele>
        <time>2021-09-18T14:04:33Z</time>
      </trkpt>
      <trkpt lat="45.467" lon="5.84745">
        <ele>1676</ele>
        <time>2021-09-18T14:04:45Z</time>
      </trkpt>
      <trkpt lat="45.46701" lon="5.84755">
        <ele>1677</ele>
        <time>2021-09-18T14:04:48Z</time>
      </trkpt>
      <trkpt lat="45.467" lon="5.84763">
        <ele>1677</ele>
        <time>2021-09-18T14:04:50Z</time>
      </trkpt>
      <trkpt lat="45.46702" lon="5.84778">
        <ele>1677</ele>
        <time>2021-09-18T14:04:57Z</time>
      </trkpt>
      <trkpt lat="45.46705" lon="5.84785">
        <ele>1678</ele>
        <time>2021-09-18T14:05:02Z</time>
      </trkpt>
      <trkpt lat="45.46706" lon="5.84793">
        <ele>1678</ele>
        <time>2021-09-18T14:05:06Z</time>
      </trkpt>
      <trkpt lat="45.4671" lon="5.84799">
        <ele>1679</ele>
        <time>2021-09-18T14:05:10Z</time>
      </trkpt>
      <trkpt lat="45.46717" lon="5.8481">
        <ele>1677</ele>
        <time>2021-09-18T14:05:19Z</time>
      </trkpt>
      <trkpt lat="45.46723" lon="5.84813">
        <ele>1675</ele>
        <time>2021-09-18T14:05:28Z</time>
      </trkpt>
      <trkpt lat="45.46728" lon="5.84819">
        <ele>1674</ele>
        <time>2021-09-18T14:05:33Z</time>
      </trkpt>
      <trkpt lat="45.46733" lon="5.84823">
        <ele>1673</ele>
        <time>2021-09-18T14:05:36Z</time>
      </trkpt>
      <trkpt lat="45.46746" lon="5.84835">
        <ele>1673</ele>
        <time>2021-09-18T14:05:47Z</time>
      </trkpt>
      <trkpt lat="45.46756" lon="5.8484">
        <ele>1674</ele>
        <time>2021-09-18T14:05:58Z</time>
      </trkpt>
      <trkpt lat="45.4676" lon="5.84845">
        <ele>1675</ele>
        <time>2021-09-18T14:06:02Z</time>
      </trkpt>
      <trkpt lat="45.46767" lon="5.84849">
        <ele>1675</ele>
        <time>2021-09-18T14:06:07Z</time>
      </trkpt>
      <trkpt lat="45.46772" lon="5.84856">
        <ele>1675</ele>
        <time>2021-09-18T14:06:14Z</time>
      </trkpt>
      <trkpt lat="45.46773" lon="5.84873">
        <ele>1675</ele>
        <time>2021-09-18T14:06:24Z</time>
      </trkpt>
      <trkpt lat="45.46774" lon="5.84879">
        <ele>1675</ele>
        <time>2021-09-18T14:06:27Z</time>
      </trkpt>
      <trkpt lat="45.46776" lon="5.84887">
        <ele>1674</ele>
        <time>2021-09-18T14:06:32Z</time>
      </trkpt>
      <trkpt lat="45.4678" lon="5.84893">
        <ele>1672</ele>
        <time>2021-09-18T14:06:37Z</time>
      </trkpt>
      <trkpt lat="45.46785" lon="5.84899">
        <ele>1671</ele>
        <time>2021-09-18T14:06:41Z</time>
      </trkpt>
      <trkpt lat="45.46791" lon="5.84906">
        <ele>1670</ele>
        <time>2021-09-18T14:06:51Z</time>
      </trkpt>
      <trkpt lat="45.46803" lon="5.84907">
        <ele>1668</ele>
        <time>2021-09-18T14:07:01Z</time>
      </trkpt>
      <trkpt lat="45.4681" lon="5.84915">
        <ele>1666</ele>
        <time>2021-09-18T14:07:08Z</time>
      </trkpt>
      <trkpt lat="45.46815" lon="5.84917">
        <ele>1665</ele>
        <time>2021-09-18T14:07:13Z</time>
      </trkpt>
      <trkpt lat="45.46826" lon="5.84918">
        <ele>1667</ele>
        <time>2021-09-18T14:07:28Z</time>
      </trkpt>
      <trkpt lat="45.46832" lon="5.84923">
        <ele>1666</ele>
        <time>2021-09-18T14:07:33Z</time>
      </trkpt>
      <trkpt lat="45.46835" lon="5.8493">
        <ele>1665</ele>
        <time>2021-09-18T14:07:39Z</time>
      </trkpt>
      <trkpt lat="45.4684" lon="5.84934">
        <ele>1664</ele>
        <time>2021-09-18T14:07:44Z</time>
      </trkpt>
      <trkpt lat="45.46843" lon="5.84942">
        <ele>1664</ele>
        <time>2021-09-18T14:07:49Z</time>
      </trkpt>
      <trkpt lat="45.46849" lon="5.84951">
        <ele>1664</ele>
        <time>2021-09-18T14:07:58Z</time>
      </trkpt>
      <trkpt lat="45.4686" lon="5.84964">
        <ele>1660</ele>
        <time>2021-09-18T14:08:18Z</time>
      </trkpt>
      <trkpt lat="45.46866" lon="5.84967">
        <ele>1659</ele>
        <time>2021-09-18T14:08:24Z</time>
      </trkpt>
      <trkpt lat="45.46873" lon="5.84968">
        <ele>1659</ele>
        <time>2021-09-18T14:08:31Z</time>
      </trkpt>
      <trkpt lat="45.46879" lon="5.84973">
        <ele>1658</ele>
        <time>2021-09-18T14:08:39Z</time>
      </trkpt>
      <trkpt lat="45.46888" lon="5.84975">
        <ele>1657</ele>
        <time>2021-09-18T14:08:53Z</time>
      </trkpt>
      <trkpt lat="45.46899" lon="5.84982">
        <ele>1654</ele>
        <time>2021-09-18T14:09:06Z</time>
      </trkpt>
      <trkpt lat="45.46902" lon="5.84992">
        <ele>1656</ele>
        <time>2021-09-18T14:09:19Z</time>
      </trkpt>
      <trkpt lat="45.46903" lon="5.85001">
        <ele>1657</ele>
        <time>2021-09-18T14:09:29Z</time>
      </trkpt>
      <trkpt lat="45.4691" lon="5.8501">
        <ele>1658</ele>
        <time>2021-09-18T14:09:41Z</time>
      </trkpt>
      <trkpt lat="45.46918" lon="5.85014">
        <ele>1660</ele>
        <time>2021-09-18T14:09:54Z</time>
      </trkpt>
      <trkpt lat="45.46924" lon="5.85013">
        <ele>1660</ele>
        <time>2021-09-18T14:10:00Z</time>
      </trkpt>
      <trkpt lat="45.46929" lon="5.85016">
        <ele>1659</ele>
        <time>2021-09-18T14:10:05Z</time>
      </trkpt>
      <trkpt lat="45.46934" lon="5.85025">
        <ele>1662</ele>
        <time>2021-09-18T14:10:19Z</time>
      </trkpt>
      <trkpt lat="45.46937" lon="5.85031">
        <ele>1663</ele>
        <time>2021-09-18T14:10:24Z</time>
      </trkpt>
      <trkpt lat="45.46938" lon="5.85041">
        <ele>1662</ele>
        <time>2021-09-18T14:10:57Z</time>
      </trkpt>
      <trkpt lat="45.46943" lon="5.85047">
        <ele>1663</ele>
        <time>2021-09-18T14:11:03Z</time>
      </trkpt>
      <trkpt lat="45.46958" lon="5.85058">
        <ele>1661</ele>
        <time>2021-09-18T14:11:27Z</time>
      </trkpt>
      <trkpt lat="45.46967" lon="5.85063">
        <ele>1661</ele>
        <time>2021-09-18T14:11:35Z</time>
      </trkpt>
      <trkpt lat="45.46973" lon="5.85063">
        <ele>1663</ele>
        <time>2021-09-18T14:11:40Z</time>
      </trkpt>
      <trkpt lat="45.46977" lon="5.85068">
        <ele>1661</ele>
        <time>2021-09-18T14:11:45Z</time>
      </trkpt>
      <trkpt lat="45.46982" lon="5.85076">
        <ele>1663</ele>
        <time>2021-09-18T14:11:59Z</time>
      </trkpt>
      <trkpt lat="45.46991" lon="5.85079">
        <ele>1663</ele>
        <time>2021-09-18T14:12:13Z</time>
      </trkpt>
      <trkpt lat="45.46998" lon="5.85076">
        <ele>1661</ele>
        <time>2021-09-18T14:12:25Z</time>
      </trkpt>
      <trkpt lat="45.47004" lon="5.85079">
        <ele>1661</ele>
        <time>2021-09-18T14:12:31Z</time>
      </trkpt>
      <trkpt lat="45.47007" lon="5.85089">
        <ele>1661</ele>
        <time>2021-09-18T14:12:44Z</time>
      </trkpt>
      <trkpt lat="45.47012" lon="5.85092">
        <ele>1663</ele>
        <time>2021-09-18T14:12:50Z</time>
      </trkpt>
      <trkpt lat="45.4702" lon="5.85096">
        <ele>1662</ele>
        <time>2021-09-18T14:12:58Z</time>
      </trkpt>
      <trkpt lat="45.47026" lon="5.85095">
        <ele>1663</ele>
        <time>2021-09-18T14:13:07Z</time>
      </trkpt>
      <trkpt lat="45.47034" lon="5.85095">
        <ele>1663</ele>
        <time>2021-09-18T14:13:27Z</time>
      </trkpt>
      <trkpt lat="45.47039" lon="5.8509">
        <ele>1663</ele>
        <time>2021-09-18T14:13:32Z</time>
      </trkpt>
      <trkpt lat="45.47045" lon="5.85095">
        <ele>1663</ele>
        <time>2021-09-18T14:13:41Z</time>
      </trkpt>
      <trkpt lat="45.47051" lon="5.851">
        <ele>1662</ele>
        <time>2021-09-18T14:13:53Z</time>
      </trkpt>
      <trkpt lat="45.47057" lon="5.85103">
        <ele>1661</ele>
        <time>2021-09-18T14:14:11Z</time>
      </trkpt>
      <trkpt lat="45.47063" lon="5.85108">
        <ele>1660</ele>
        <time>2021-09-18T14:14:23Z</time>
      </trkpt>
      <trkpt lat="45.47068" lon="5.85115">
        <ele>1659</ele>
        <time>2021-09-18T14:14:29Z</time>
      </trkpt>
      <trkpt lat="45.47072" lon="5.85122">
        <ele>1659</ele>
        <time>2021-09-18T14:14:39Z</time>
      </trkpt>
      <trkpt lat="45.47076" lon="5.85127">
        <ele>1658</ele>
        <time>2021-09-18T14:14:46Z</time>
      </trkpt>
      <trkpt lat="45.47085" lon="5.85141">
        <ele>1653</ele>
        <time>2021-09-18T14:15:19Z</time>
      </trkpt>
      <trkpt lat="45.4709" lon="5.85151">
        <ele>1653</ele>
        <time>2021-09-18T14:15:30Z</time>
      </trkpt>
      <trkpt lat="45.47096" lon="5.85157">
        <ele>1652</ele>
        <time>2021-09-18T14:15:48Z</time>
      </trkpt>
      <trkpt lat="45.47103" lon="5.85166">
        <ele>1651</ele>
        <time>2021-09-18T14:15:59Z</time>
      </trkpt>
      <trkpt lat="45.47108" lon="5.85171">
        <ele>1651</ele>
        <time>2021-09-18T14:16:04Z</time>
      </trkpt>
      <trkpt lat="45.47114" lon="5.85172">
        <ele>1649</ele>
        <time>2021-09-18T14:16:11Z</time>
      </trkpt>
      <trkpt lat="45.47123" lon="5.85172">
        <ele>1651</ele>
        <time>2021-09-18T14:16:22Z</time>
      </trkpt>
      <trkpt lat="45.47134" lon="5.85185">
        <ele>1651</ele>
        <time>2021-09-18T14:16:43Z</time>
      </trkpt>
      <trkpt lat="45.47138" lon="5.8519">
        <ele>1651</ele>
        <time>2021-09-18T14:16:48Z</time>
      </trkpt>
      <trkpt lat="45.47145" lon="5.85195">
        <ele>1652</ele>
        <time>2021-09-18T14:16:54Z</time>
      </trkpt>
      <trkpt lat="45.47149" lon="5.85201">
        <ele>1651</ele>
        <time>2021-09-18T14:16:59Z</time>
      </trkpt>
      <trkpt lat="45.47156" lon="5.85208">
        <ele>1650</ele>
        <time>2021-09-18T14:17:10Z</time>
      </trkpt>
      <trkpt lat="45.47157" lon="5.85228">
        <ele>1652</ele>
        <time>2021-09-18T14:17:28Z</time>
      </trkpt>
      <trkpt lat="45.4716" lon="5.85236">
        <ele>1652</ele>
        <time>2021-09-18T14:17:37Z</time>
      </trkpt>
      <trkpt lat="45.47173" lon="5.85253">
        <ele>1652</ele>
        <time>2021-09-18T14:17:58Z</time>
      </trkpt>
      <trkpt lat="45.47176" lon="5.8526">
        <ele>1652</ele>
        <time>2021-09-18T14:18:04Z</time>
      </trkpt>
      <trkpt lat="45.47181" lon="5.85264">
        <ele>1653</ele>
        <time>2021-09-18T14:18:10Z</time>
      </trkpt>
      <trkpt lat="45.47189" lon="5.8527">
        <ele>1653</ele>
        <time>2021-09-18T14:18:21Z</time>
      </trkpt>
      <trkpt lat="45.47199" lon="5.85278">
        <ele>1650</ele>
        <time>2021-09-18T14:18:35Z</time>
      </trkpt>
      <trkpt lat="45.47201" lon="5.85285">
        <ele>1650</ele>
        <time>2021-09-18T14:18:42Z</time>
      </trkpt>
      <trkpt lat="45.47199" lon="5.85296">
        <ele>1649</ele>
        <time>2021-09-18T14:18:48Z</time>
      </trkpt>
      <trkpt lat="45.472" lon="5.85305">
        <ele>1649</ele>
        <time>2021-09-18T14:18:56Z</time>
      </trkpt>
      <trkpt lat="45.47203" lon="5.85311">
        <ele>1649</ele>
        <time>2021-09-18T14:19:02Z</time>
      </trkpt>
      <trkpt lat="45.47214" lon="5.85324">
        <ele>1647</ele>
        <time>2021-09-18T14:19:28Z</time>
      </trkpt>
      <trkpt lat="45.47221" lon="5.85318">
        <ele>1648</ele>
        <time>2021-09-18T14:19:36Z</time>
      </trkpt>
      <trkpt lat="45.47227" lon="5.85317">
        <ele>1649</ele>
        <time>2021-09-18T14:19:44Z</time>
      </trkpt>
      <trkpt lat="45.47233" lon="5.85311">
        <ele>1648</ele>
        <time>2021-09-18T14:19:52Z</time>
      </trkpt>
      <trkpt lat="45.47237" lon="5.853">
        <ele>1647</ele>
        <time>2021-09-18T14:20:02Z</time>
      </trkpt>
      <trkpt lat="45.4724" lon="5.85293">
        <ele>1646</ele>
        <time>2021-09-18T14:20:07Z</time>
      </trkpt>
      <trkpt lat="45.47246" lon="5.85283">
        <ele>1646</ele>
        <time>2021-09-18T14:20:18Z</time>
      </trkpt>
      <trkpt lat="45.47254" lon="5.85286">
        <ele>1645</ele>
        <time>2021-09-18T14:20:30Z</time>
      </trkpt>
      <trkpt lat="45.47269" lon="5.85303">
        <ele>1645</ele>
        <time>2021-09-18T14:20:51Z</time>
      </trkpt>
      <trkpt lat="45.47266" lon="5.85315">
        <ele>1647</ele>
        <time>2021-09-18T14:21:05Z</time>
      </trkpt>
      <trkpt lat="45.47272" lon="5.85324">
        <ele>1647</ele>
        <time>2021-09-18T14:21:17Z</time>
      </trkpt>
      <trkpt lat="45.47278" lon="5.85323">
        <ele>1646</ele>
        <time>2021-09-18T14:21:24Z</time>
      </trkpt>
      <trkpt lat="45.47288" lon="5.85308">
        <ele>1644</ele>
        <time>2021-09-18T14:21:54Z</time>
      </trkpt>
      <trkpt lat="45.47293" lon="5.85302">
        <ele>1644</ele>
        <time>2021-09-18T14:21:59Z</time>
      </trkpt>
      <trkpt lat="45.47299" lon="5.85307">
        <ele>1643</ele>
        <time>2021-09-18T14:22:03Z</time>
      </trkpt>
      <trkpt lat="45.47305" lon="5.85306">
        <ele>1642</ele>
        <time>2021-09-18T14:22:07Z</time>
      </trkpt>
      <trkpt lat="45.47311" lon="5.85305">
        <ele>1642</ele>
        <time>2021-09-18T14:22:13Z</time>
      </trkpt>
      <trkpt lat="45.47317" lon="5.853">
        <ele>1641</ele>
        <time>2021-09-18T14:22:20Z</time>
      </trkpt>
      <trkpt lat="45.47319" lon="5.85294">
        <ele>1640</ele>
        <time>2021-09-18T14:22:26Z</time>
      </trkpt>
      <trkpt lat="45.47324" lon="5.85289">
        <ele>1639</ele>
        <time>2021-09-18T14:22:39Z</time>
      </trkpt>
      <trkpt lat="45.4733" lon="5.85287">
        <ele>1636</ele>
        <time>2021-09-18T14:22:45Z</time>
      </trkpt>
      <trkpt lat="45.47341" lon="5.85283">
        <ele>1637</ele>
        <time>2021-09-18T14:22:56Z</time>
      </trkpt>
      <trkpt lat="45.47354" lon="5.8528">
        <ele>1635</ele>
        <time>2021-09-18T14:23:16Z</time>
      </trkpt>
      <trkpt lat="45.47362" lon="5.8529">
        <ele>1636</ele>
        <time>2021-09-18T14:23:26Z</time>
      </trkpt>
      <trkpt lat="45.47368" lon="5.85289">
        <ele>1638</ele>
        <time>2021-09-18T14:23:40Z</time>
      </trkpt>
      <trkpt lat="45.47376" lon="5.85285">
        <ele>1638</ele>
        <time>2021-09-18T14:23:57Z</time>
      </trkpt>
      <trkpt lat="45.47384" lon="5.85283">
        <ele>1640</ele>
        <time>2021-09-18T14:24:09Z</time>
      </trkpt>
      <trkpt lat="45.47388" lon="5.85277">
        <ele>1639</ele>
        <time>2021-09-18T14:24:14Z</time>
      </trkpt>
      <trkpt lat="45.47392" lon="5.85268">
        <ele>1639</ele>
        <time>2021-09-18T14:24:22Z</time>
      </trkpt>
      <trkpt lat="45.474" lon="5.85262">
        <ele>1638</ele>
        <time>2021-09-18T14:24:34Z</time>
      </trkpt>
      <trkpt lat="45.47405" lon="5.85259">
        <ele>1638</ele>
        <time>2021-09-18T14:24:41Z</time>
      </trkpt>
      <trkpt lat="45.47415" lon="5.85265">
        <ele>1637</ele>
        <time>2021-09-18T14:24:59Z</time>
      </trkpt>
      <trkpt lat="45.47425" lon="5.85266">
        <ele>1638</ele>
        <time>2021-09-18T14:25:12Z</time>
      </trkpt>
      <trkpt lat="45.47431" lon="5.85272">
        <ele>1637</ele>
        <time>2021-09-18T14:25:26Z</time>
      </trkpt>
      <trkpt lat="45.4744" lon="5.85278">
        <ele>1637</ele>
        <time>2021-09-18T14:25:44Z</time>
      </trkpt>
      <trkpt lat="45.47443" lon="5.85285">
        <ele>1639</ele>
        <time>2021-09-18T14:25:50Z</time>
      </trkpt>
      <trkpt lat="45.47448" lon="5.85291">
        <ele>1638</ele>
        <time>2021-09-18T14:25:58Z</time>
      </trkpt>
      <trkpt lat="45.47462" lon="5.853">
        <ele>1636</ele>
        <time>2021-09-18T14:26:22Z</time>
      </trkpt>
      <trkpt lat="45.47457" lon="5.85313">
        <ele>1635</ele>
        <time>2021-09-18T14:26:34Z</time>
      </trkpt>
      <trkpt lat="45.47453" lon="5.85317">
        <ele>1635</ele>
        <time>2021-09-18T14:26:38Z</time>
      </trkpt>
      <trkpt lat="45.47451" lon="5.85326">
        <ele>1634</ele>
        <time>2021-09-18T14:26:47Z</time>
      </trkpt>
      <trkpt lat="45.47467" lon="5.85354">
        <ele>1630</ele>
        <time>2021-09-18T14:27:24Z</time>
      </trkpt>
      <trkpt lat="45.47473" lon="5.85358">
        <ele>1629</ele>
        <time>2021-09-18T14:27:36Z</time>
      </trkpt>
      <trkpt lat="45.47486" lon="5.85363">
        <ele>1626</ele>
        <time>2021-09-18T14:28:02Z</time>
      </trkpt>
      <trkpt lat="45.47493" lon="5.85362">
        <ele>1626</ele>
        <time>2021-09-18T14:28:09Z</time>
      </trkpt>
      <trkpt lat="45.47509" lon="5.85346">
        <ele>1625</ele>
        <time>2021-09-18T14:28:32Z</time>
      </trkpt>
      <trkpt lat="45.47524" lon="5.85359">
        <ele>1623</ele>
        <time>2021-09-18T14:28:54Z</time>
      </trkpt>
      <trkpt lat="45.47543" lon="5.85385">
        <ele>1625</ele>
        <time>2021-09-18T14:29:30Z</time>
      </trkpt>
      <trkpt lat="45.47553" lon="5.85401">
        <ele>1628</ele>
        <time>2021-09-18T14:30:06Z</time>
      </trkpt>
      <trkpt lat="45.4756" lon="5.85425">
        <ele>1625</ele>
        <time>2021-09-18T14:30:28Z</time>
      </trkpt>
      <trkpt lat="45.47576" lon="5.85436">
        <ele>1623</ele>
        <time>2021-09-18T14:31:00Z</time>
      </trkpt>
      <trkpt lat="45.47592" lon="5.85433">
        <ele>1623</ele>
        <time>2021-09-18T14:31:23Z</time>
      </trkpt>
      <trkpt lat="45.47608" lon="5.85428">
        <ele>1621</ele>
        <time>2021-09-18T14:31:53Z</time>
      </trkpt>
      <trkpt lat="45.47627" lon="5.85431">
        <ele>1623</ele>
        <time>2021-09-18T14:32:20Z</time>
      </trkpt>
      <trkpt lat="45.47651" lon="5.85428">
        <ele>1623</ele>
        <time>2021-09-18T14:32:47Z</time>
      </trkpt>
      <trkpt lat="45.47677" lon="5.85442">
        <ele>1622</ele>
        <time>2021-09-18T14:33:14Z</time>
      </trkpt>
      <trkpt lat="45.47692" lon="5.85451">
        <ele>1618</ele>
        <time>2021-09-18T14:33:43Z</time>
      </trkpt>
      <trkpt lat="45.47703" lon="5.85437">
        <ele>1617</ele>
        <time>2021-09-18T14:34:14Z</time>
      </trkpt>
      <trkpt lat="45.47722" lon="5.85439">
        <ele>1617</ele>
        <time>2021-09-18T14:34:26Z</time>
      </trkpt>
      <trkpt lat="45.47781" lon="5.85446">
        <ele>1623</ele>
        <time>2021-09-18T14:35:38Z</time>
      </trkpt>
      <trkpt lat="45.47806" lon="5.8546">
        <ele>1621</ele>
        <time>2021-09-18T14:36:11Z</time>
      </trkpt>
      <trkpt lat="45.4784" lon="5.85462">
        <ele>1618</ele>
        <time>2021-09-18T14:36:51Z</time>
      </trkpt>
      <trkpt lat="45.47824" lon="5.85461">
        <ele>1621</ele>
        <time>2021-09-18T14:37:54Z</time>
      </trkpt>
      <trkpt lat="45.47825" lon="5.85461">
        <ele>1620</ele>
        <time>2021-09-18T14:39:24Z</time>
      </trkpt>
      <trkpt lat="45.47832" lon="5.85456">
        <ele>1619</ele>
        <time>2021-09-18T14:39:39Z</time>
      </trkpt>
      <trkpt lat="45.47843" lon="5.85459">
        <ele>1618</ele>
        <time>2021-09-18T14:39:52Z</time>
      </trkpt>
      <trkpt lat="45.47851" lon="5.85455">
        <ele>1618</ele>
        <time>2021-09-18T14:39:57Z</time>
      </trkpt>
      <trkpt lat="45.47861" lon="5.85456">
        <ele>1617</ele>
        <time>2021-09-18T14:40:07Z</time>
      </trkpt>
      <trkpt lat="45.47866" lon="5.85461">
        <ele>1617</ele>
        <time>2021-09-18T14:40:13Z</time>
      </trkpt>
      <trkpt lat="45.47875" lon="5.85462">
        <ele>1616</ele>
        <time>2021-09-18T14:40:29Z</time>
      </trkpt>
      <trkpt lat="45.4788" lon="5.85471">
        <ele>1616</ele>
        <time>2021-09-18T14:40:38Z</time>
      </trkpt>
      <trkpt lat="45.47887" lon="5.85479">
        <ele>1614</ele>
        <time>2021-09-18T14:40:46Z</time>
      </trkpt>
      <trkpt lat="45.47895" lon="5.85481">
        <ele>1615</ele>
        <time>2021-09-18T14:40:52Z</time>
      </trkpt>
      <trkpt lat="45.47906" lon="5.85485">
        <ele>1614</ele>
        <time>2021-09-18T14:41:09Z</time>
      </trkpt>
      <trkpt lat="45.4793" lon="5.85493">
        <ele>1611</ele>
        <time>2021-09-18T14:41:44Z</time>
      </trkpt>
      <trkpt lat="45.47956" lon="5.85507">
        <ele>1613</ele>
        <time>2021-09-18T14:42:19Z</time>
      </trkpt>
      <trkpt lat="45.47971" lon="5.85504">
        <ele>1612</ele>
        <time>2021-09-18T14:42:36Z</time>
      </trkpt>
      <trkpt lat="45.47985" lon="5.85514">
        <ele>1612</ele>
        <time>2021-09-18T14:42:58Z</time>
      </trkpt>
      <trkpt lat="45.47999" lon="5.85524">
        <ele>1608</ele>
        <time>2021-09-18T14:43:24Z</time>
      </trkpt>
      <trkpt lat="45.48013" lon="5.85506">
        <ele>1607</ele>
        <time>2021-09-18T14:43:52Z</time>
      </trkpt>
      <trkpt lat="45.48024" lon="5.85521">
        <ele>1607</ele>
        <time>2021-09-18T14:44:07Z</time>
      </trkpt>
      <trkpt lat="45.48026" lon="5.85542">
        <ele>1606</ele>
        <time>2021-09-18T14:44:26Z</time>
      </trkpt>
      <trkpt lat="45.48037" lon="5.85562">
        <ele>1601</ele>
        <time>2021-09-18T14:45:06Z</time>
      </trkpt>
      <trkpt lat="45.48065" lon="5.85573">
        <ele>1604</ele>
        <time>2021-09-18T14:45:38Z</time>
      </trkpt>
      <trkpt lat="45.48076" lon="5.85586">
        <ele>1605</ele>
        <time>2021-09-18T14:45:51Z</time>
      </trkpt>
      <trkpt lat="45.4809" lon="5.85594">
        <ele>1603</ele>
        <time>2021-09-18T14:46:30Z</time>
      </trkpt>
      <trkpt lat="45.48103" lon="5.85586">
        <ele>1604</ele>
        <time>2021-09-18T14:46:50Z</time>
      </trkpt>
      <trkpt lat="45.48121" lon="5.85592">
        <ele>1601</ele>
        <time>2021-09-18T14:47:15Z</time>
      </trkpt>
      <trkpt lat="45.48142" lon="5.85585">
        <ele>1601</ele>
        <time>2021-09-18T14:47:45Z</time>
      </trkpt>
      <trkpt lat="45.48156" lon="5.85593">
        <ele>1601</ele>
        <time>2021-09-18T14:48:16Z</time>
      </trkpt>
      <trkpt lat="45.48155" lon="5.85616">
        <ele>1603</ele>
        <time>2021-09-18T14:49:16Z</time>
      </trkpt>
      <trkpt lat="45.48163" lon="5.85633">
        <ele>1604</ele>
        <time>2021-09-18T14:49:29Z</time>
      </trkpt>
      <trkpt lat="45.48179" lon="5.85642">
        <ele>1604</ele>
        <time>2021-09-18T14:49:41Z</time>
      </trkpt>
      <trkpt lat="45.48192" lon="5.85649">
        <ele>1601</ele>
        <time>2021-09-18T14:49:57Z</time>
      </trkpt>
      <trkpt lat="45.48221" lon="5.85642">
        <ele>1600</ele>
        <time>2021-09-18T14:50:28Z</time>
      </trkpt>
      <trkpt lat="45.48235" lon="5.85646">
        <ele>1601</ele>
        <time>2021-09-18T14:50:46Z</time>
      </trkpt>
      <trkpt lat="45.48251" lon="5.85648">
        <ele>1600</ele>
        <time>2021-09-18T14:51:02Z</time>
      </trkpt>
      <trkpt lat="45.48281" lon="5.85645">
        <ele>1591</ele>
        <time>2021-09-18T14:51:54Z</time>
      </trkpt>
      <trkpt lat="45.48277" lon="5.85668">
        <ele>1592</ele>
        <time>2021-09-18T14:52:15Z</time>
      </trkpt>
      <trkpt lat="45.48305" lon="5.85687">
        <ele>1590</ele>
        <time>2021-09-18T14:53:27Z</time>
      </trkpt>
      <trkpt lat="45.48305" lon="5.85712">
        <ele>1592</ele>
        <time>2021-09-18T14:54:42Z</time>
      </trkpt>
      <trkpt lat="45.48306" lon="5.85733">
        <ele>1594</ele>
        <time>2021-09-18T14:55:24Z</time>
      </trkpt>
      <trkpt lat="45.48306" lon="5.85741">
        <ele>1593</ele>
        <time>2021-09-18T14:58:29Z</time>
      </trkpt>
      <trkpt lat="45.48297" lon="5.85744">
        <ele>1592</ele>
        <time>2021-09-18T14:59:20Z</time>
      </trkpt>
      <trkpt lat="45.48294" lon="5.85759">
        <ele>1591</ele>
        <time>2021-09-18T14:59:33Z</time>
      </trkpt>
      <trkpt lat="45.48299" lon="5.85773">
        <ele>1591</ele>
        <time>2021-09-18T14:59:43Z</time>
      </trkpt>
      <trkpt lat="45.48305" lon="5.85781">
        <ele>1591</ele>
        <time>2021-09-18T14:59:50Z</time>
      </trkpt>
      <trkpt lat="45.48316" lon="5.85793">
        <ele>1590</ele>
        <time>2021-09-18T15:00:06Z</time>
      </trkpt>
      <trkpt lat="45.48323" lon="5.85799">
        <ele>1589</ele>
        <time>2021-09-18T15:00:13Z</time>
      </trkpt>
      <trkpt lat="45.4833" lon="5.85804">
        <ele>1587</ele>
        <time>2021-09-18T15:00:27Z</time>
      </trkpt>
      <trkpt lat="45.48331" lon="5.85819">
        <ele>1583</ele>
        <time>2021-09-18T15:00:41Z</time>
      </trkpt>
      <trkpt lat="45.48336" lon="5.85826">
        <ele>1581</ele>
        <time>2021-09-18T15:00:54Z</time>
      </trkpt>
      <trkpt lat="45.48331" lon="5.85832">
        <ele>1580</ele>
        <time>2021-09-18T15:00:59Z</time>
      </trkpt>
      <trkpt lat="45.48332" lon="5.85842">
        <ele>1577</ele>
        <time>2021-09-18T15:01:12Z</time>
      </trkpt>
      <trkpt lat="45.48337" lon="5.85853">
        <ele>1574</ele>
        <time>2021-09-18T15:01:36Z</time>
      </trkpt>
      <trkpt lat="45.48339" lon="5.85856">
        <ele>1569</ele>
        <time>2021-09-18T15:02:18Z</time>
      </trkpt>
      <trkpt lat="45.48336" lon="5.85868">
        <ele>1568</ele>
        <time>2021-09-18T15:02:32Z</time>
      </trkpt>
      <trkpt lat="45.48337" lon="5.85875">
        <ele>1565</ele>
        <time>2021-09-18T15:02:49Z</time>
      </trkpt>
      <trkpt lat="45.48345" lon="5.8588">
        <ele>1562</ele>
        <time>2021-09-18T15:03:07Z</time>
      </trkpt>
      <trkpt lat="45.48343" lon="5.85888">
        <ele>1559</ele>
        <time>2021-09-18T15:03:25Z</time>
      </trkpt>
      <trkpt lat="45.48341" lon="5.85896">
        <ele>1558</ele>
        <time>2021-09-18T15:03:31Z</time>
      </trkpt>
      <trkpt lat="45.48342" lon="5.85904">
        <ele>1557</ele>
        <time>2021-09-18T15:03:45Z</time>
      </trkpt>
      <trkpt lat="45.48339" lon="5.8591">
        <ele>1556</ele>
        <time>2021-09-18T15:03:57Z</time>
      </trkpt>
      <trkpt lat="45.48344" lon="5.85915">
        <ele>1554</ele>
        <time>2021-09-18T15:04:08Z</time>
      </trkpt>
      <trkpt lat="45.4834" lon="5.85922">
        <ele>1551</ele>
        <time>2021-09-18T15:04:23Z</time>
      </trkpt>
      <trkpt lat="45.48342" lon="5.85929">
        <ele>1553</ele>
        <time>2021-09-18T15:04:27Z</time>
      </trkpt>
      <trkpt lat="45.4835" lon="5.85937">
        <ele>1553</ele>
        <time>2021-09-18T15:04:38Z</time>
      </trkpt>
      <trkpt lat="45.48355" lon="5.85938">
        <ele>1552</ele>
        <time>2021-09-18T15:04:44Z</time>
      </trkpt>
      <trkpt lat="45.4836" lon="5.85941">
        <ele>1550</ele>
        <time>2021-09-18T15:04:53Z</time>
      </trkpt>
      <trkpt lat="45.48368" lon="5.85948">
        <ele>1547</ele>
        <time>2021-09-18T15:05:11Z</time>
      </trkpt>
      <trkpt lat="45.48376" lon="5.85951">
        <ele>1546</ele>
        <time>2021-09-18T15:05:23Z</time>
      </trkpt>
      <trkpt lat="45.48394" lon="5.85959">
        <ele>1543</ele>
        <time>2021-09-18T15:05:59Z</time>
      </trkpt>
      <trkpt lat="45.48404" lon="5.8596">
        <ele>1539</ele>
        <time>2021-09-18T15:06:29Z</time>
      </trkpt>
      <trkpt lat="45.48409" lon="5.85961">
        <ele>1540</ele>
        <time>2021-09-18T15:06:40Z</time>
      </trkpt>
      <trkpt lat="45.48415" lon="5.85966">
        <ele>1540</ele>
        <time>2021-09-18T15:06:45Z</time>
      </trkpt>
      <trkpt lat="45.48414" lon="5.85978">
        <ele>1538</ele>
        <time>2021-09-18T15:06:59Z</time>
      </trkpt>
      <trkpt lat="45.48414" lon="5.85987">
        <ele>1537</ele>
        <time>2021-09-18T15:07:11Z</time>
      </trkpt>
      <trkpt lat="45.48415" lon="5.85995">
        <ele>1536</ele>
        <time>2021-09-18T15:07:23Z</time>
      </trkpt>
      <trkpt lat="45.48408" lon="5.86013">
        <ele>1534</ele>
        <time>2021-09-18T15:07:37Z</time>
      </trkpt>
      <trkpt lat="45.48408" lon="5.86022">
        <ele>1533</ele>
        <time>2021-09-18T15:07:45Z</time>
      </trkpt>
      <trkpt lat="45.48403" lon="5.86029">
        <ele>1531</ele>
        <time>2021-09-18T15:07:54Z</time>
      </trkpt>
      <trkpt lat="45.48396" lon="5.86036">
        <ele>1530</ele>
        <time>2021-09-18T15:08:06Z</time>
      </trkpt>
      <trkpt lat="45.48397" lon="5.8605">
        <ele>1529</ele>
        <time>2021-09-18T15:08:16Z</time>
      </trkpt>
      <trkpt lat="45.48403" lon="5.86064">
        <ele>1528</ele>
        <time>2021-09-18T15:08:23Z</time>
      </trkpt>
      <trkpt lat="45.48407" lon="5.86069">
        <ele>1530</ele>
        <time>2021-09-18T15:08:29Z</time>
      </trkpt>
      <trkpt lat="45.48411" lon="5.86079">
        <ele>1526</ele>
        <time>2021-09-18T15:08:43Z</time>
      </trkpt>
      <trkpt lat="45.48423" lon="5.8609">
        <ele>1524</ele>
        <time>2021-09-18T15:09:00Z</time>
      </trkpt>
      <trkpt lat="45.48418" lon="5.86119">
        <ele>1520</ele>
        <time>2021-09-18T15:09:34Z</time>
      </trkpt>
      <trkpt lat="45.48419" lon="5.8613">
        <ele>1518</ele>
        <time>2021-09-18T15:09:41Z</time>
      </trkpt>
      <trkpt lat="45.48411" lon="5.86137">
        <ele>1516</ele>
        <time>2021-09-18T15:09:51Z</time>
      </trkpt>
      <trkpt lat="45.48411" lon="5.86147">
        <ele>1516</ele>
        <time>2021-09-18T15:10:00Z</time>
      </trkpt>
      <trkpt lat="45.48414" lon="5.86157">
        <ele>1513</ele>
        <time>2021-09-18T15:10:12Z</time>
      </trkpt>
      <trkpt lat="45.48416" lon="5.86167">
        <ele>1511</ele>
        <time>2021-09-18T15:10:21Z</time>
      </trkpt>
      <trkpt lat="45.48419" lon="5.86175">
        <ele>1510</ele>
        <time>2021-09-18T15:10:25Z</time>
      </trkpt>
      <trkpt lat="45.48424" lon="5.8618">
        <ele>1510</ele>
        <time>2021-09-18T15:10:29Z</time>
      </trkpt>
      <trkpt lat="45.4843" lon="5.862">
        <ele>1508</ele>
        <time>2021-09-18T15:10:48Z</time>
      </trkpt>
      <trkpt lat="45.48431" lon="5.86211">
        <ele>1502</ele>
        <time>2021-09-18T15:11:08Z</time>
      </trkpt>
      <trkpt lat="45.48426" lon="5.86228">
        <ele>1501</ele>
        <time>2021-09-18T15:11:27Z</time>
      </trkpt>
      <trkpt lat="45.48431" lon="5.86238">
        <ele>1499</ele>
        <time>2021-09-18T15:11:46Z</time>
      </trkpt>
      <trkpt lat="45.48427" lon="5.86246">
        <ele>1496</ele>
        <time>2021-09-18T15:11:58Z</time>
      </trkpt>
      <trkpt lat="45.48434" lon="5.86253">
        <ele>1494</ele>
        <time>2021-09-18T15:12:06Z</time>
      </trkpt>
      <trkpt lat="45.48428" lon="5.86272">
        <ele>1491</ele>
        <time>2021-09-18T15:12:22Z</time>
      </trkpt>
      <trkpt lat="45.48422" lon="5.86281">
        <ele>1491</ele>
        <time>2021-09-18T15:12:29Z</time>
      </trkpt>
      <trkpt lat="45.48418" lon="5.86287">
        <ele>1489</ele>
        <time>2021-09-18T15:12:35Z</time>
      </trkpt>
      <trkpt lat="45.48411" lon="5.86307">
        <ele>1485</ele>
        <time>2021-09-18T15:13:21Z</time>
      </trkpt>
      <trkpt lat="45.48417" lon="5.86314">
        <ele>1486</ele>
        <time>2021-09-18T15:16:02Z</time>
      </trkpt>
      <trkpt lat="45.48418" lon="5.86311">
        <ele>1484</ele>
        <time>2021-09-18T15:18:14Z</time>
      </trkpt>
      <trkpt lat="45.48418" lon="5.86311">
        <ele>1484</ele>
        <time>2021-09-18T15:18:22Z</time>
      </trkpt>
      <trkpt lat="45.48418" lon="5.86309">
        <ele>1484</ele>
        <time>2021-09-18T15:19:36Z</time>
      </trkpt>
      <trkpt lat="45.48411" lon="5.86313">
        <ele>1482</ele>
        <time>2021-09-18T15:20:57Z</time>
      </trkpt>
      <trkpt lat="45.48339" lon="5.86375">
        <ele>1458</ele>
        <time>2021-09-18T15:27:36Z</time>
      </trkpt>
      <trkpt lat="45.48337" lon="5.86367">
        <ele>1458</ele>
        <time>2021-09-18T15:28:01Z</time>
      </trkpt>
      <trkpt lat="45.4833" lon="5.86365">
        <ele>1456</ele>
        <time>2021-09-18T15:28:25Z</time>
      </trkpt>
      <trkpt lat="45.4833" lon="5.86365">
        <ele>1456</ele>
        <time>2021-09-18T15:28:26Z</time>
      </trkpt>
      <trkpt lat="45.4828" lon="5.86285">
        <ele>1406</ele>
        <time>2021-09-18T15:35:18Z</time>
      </trkpt>
      <trkpt lat="45.48205" lon="5.8631">
        <ele>1405</ele>
        <time>2021-09-18T15:36:56Z</time>
      </trkpt>
      <trkpt lat="45.48249" lon="5.86306">
        <ele>1403</ele>
        <time>2021-09-18T15:37:28Z</time>
      </trkpt>
      <trkpt lat="45.55228" lon="5.93781">
        <ele>370</ele>
        <time>2021-09-21T18:30:36Z</time>
      </trkpt>
      <trkpt lat="45.55228" lon="5.93778">
        <ele>370</ele>
        <time>2021-09-21T18:30:42Z</time>
      </trkpt>
    </trkseg>
  </trk>
  <rte>
    <name><![CDATA[4 avr. 2019 à 23:11:12]]></name>
    <cmt><![CDATA[4 avr. 2019 à 23:11:12]]></cmt>
    <desc><![CDATA[{DC1}Heure de fin	: 
Durée totale	: 0h00:00
Moyenne globale	: -
Pente moyenne	: 0.00 %
Aire incluse	: 7.4932 ha
Détails par segments
distance  | durée    | vit.moy. | vit.max. | déniv. + | déniv -
   km     | hh:mn:ss |   km/h   |   km/h   |    m     |    m
     0.81 | 00:00:00 |      0.0 |      0.0 |        0 |        0{DC2}]]></desc>
      <rtept lat="45.60077" lon="6.18221">
        <ele>1608.6</ele>
      </rtept>
      <rtept lat="45.59468" lon="6.1822">
        <ele>1760.9</ele>
      </rtept>
      <rtept lat="45.59468" lon="6.1822">
        <ele>1760.9</ele>
      </rtept>
    </rte>
  <rte>
    <name><![CDATA[10 févr. 2019 à 15:16:12]]></name>
    <cmt><![CDATA[10 févr. 2019 à 15:16:12]]></cmt>
    <desc><![CDATA[{DC1}Heure de fin	: 00:09:21
Durée totale	: -17690439h43:48
Moyenne globale	: -
Pente moyenne	: 7.00 %
Aire incluse	: 221.0936 ha
Détails par segments
distance  | durée    | vit.moy. | vit.max. | déniv. + | déniv -
   km     | hh:mn:ss |   km/h   |   km/h   |    m     |    m
     7.48 | 00:00:00 |      0.0 |      0.0 |        0 |        0{DC2}]]></desc>
      <rtept lat="45.55203" lon="5.93805">
        <ele>376</ele>
      </rtept>
      <rtept lat="45.55177" lon="5.93873">
        <ele>369</ele>
      </rtept>
      <rtept lat="45.55176" lon="5.93942">
        <ele>367</ele>
      </rtept>
      <rtept lat="45.55105" lon="5.93942">
        <ele>367</ele>
      </rtept>
      <rtept lat="45.54993" lon="5.93908">
        <ele>371</ele>
      </rtept>
      <rtept lat="45.54929" lon="5.94099">
        <ele>370</ele>
      </rtept>
      <rtept lat="45.54908" lon="5.94204">
        <ele>367</ele>
      </rtept>
      <rtept lat="45.54991" lon="5.94287">
        <ele>365</ele>
      </rtept>
      <rtept lat="45.5506" lon="5.94384">
        <ele>361</ele>
      </rtept>
      <rtept lat="45.55147" lon="5.94384">
        <ele>357</ele>
      </rtept>
      <rtept lat="45.55129" lon="5.94607">
        <ele>358</ele>
      </rtept>
      <rtept lat="45.55029" lon="5.94809">
        <ele>355</ele>
      </rtept>
      <rtept lat="45.54884" lon="5.94886">
        <ele>346</ele>
      </rtept>
      <rtept lat="45.5477" lon="5.94931">
        <ele>342</ele>
      </rtept>
      <rtept lat="45.5468" lon="5.95004">
        <ele>339</ele>
      </rtept>
      <rtept lat="45.54596" lon="5.95133">
        <ele>340</ele>
      </rtept>
      <rtept lat="45.54446" lon="5.95195">
        <ele>343</ele>
      </rtept>
      <rtept lat="45.543" lon="5.95262">
        <ele>344</ele>
      </rtept>
      <rtept lat="45.54156" lon="5.95212">
        <ele>337</ele>
      </rtept>
      <rtept lat="45.54041" lon="5.95204">
        <ele>338</ele>
      </rtept>
      <rtept lat="45.53917" lon="5.95141">
        <ele>343</ele>
      </rtept>
      <rtept lat="45.53844" lon="5.95135">
        <ele>347</ele>
      </rtept>
      <rtept lat="45.53765" lon="5.9503">
        <ele>349</ele>
      </rtept>
      <rtept lat="45.5381" lon="5.94993">
        <ele>352</ele>
      </rtept>
      <rtept lat="45.53781" lon="5.94901">
        <ele>358</ele>
      </rtept>
      <rtept lat="45.53711" lon="5.94845">
        <ele>365</ele>
      </rtept>
      <rtept lat="45.53702" lon="5.94764">
        <ele>369</ele>
      </rtept>
      <rtept lat="45.53817" lon="5.94807">
        <ele>376</ele>
      </rtept>
      <rtept lat="45.53865" lon="5.94633">
        <ele>389</ele>
      </rtept>
      <rtept lat="45.53778" lon="5.94491">
        <ele>408</ele>
      </rtept>
      <rtept lat="45.53757" lon="5.94371">
        <ele>425</ele>
      </rtept>
      <rtept lat="45.53775" lon="5.94279">
        <ele>434</ele>
      </rtept>
      <rtept lat="45.53726" lon="5.94227">
        <ele>442</ele>
      </rtept>
      <rtept lat="45.53572" lon="5.94146">
        <ele>468</ele>
      </rtept>
      <rtept lat="45.53664" lon="5.94039">
        <ele>483</ele>
      </rtept>
      <rtept lat="45.53532" lon="5.93983">
        <ele>505</ele>
      </rtept>
      <rtept lat="45.53416" lon="5.93985">
        <ele>516</ele>
      </rtept>
      <rtept lat="45.5355" lon="5.93869">
        <ele>532</ele>
      </rtept>
      <rtept lat="45.5359" lon="5.93845">
        <ele>537</ele>
      </rtept>
      <rtept lat="45.5355" lon="5.93802">
        <ele>544</ele>
      </rtept>
      <rtept lat="45.53724" lon="5.93554">
        <ele>587</ele>
      </rtept>
      <rtept lat="45.53691" lon="5.93339">
        <ele>592</ele>
      </rtept>
      <rtept lat="45.5376" lon="5.93178">
        <ele>575</ele>
      </rtept>
      <rtept lat="45.53843" lon="5.93069">
        <ele>555</ele>
      </rtept>
      <rtept lat="45.53939" lon="5.93157">
        <ele>541</ele>
      </rtept>
      <rtept lat="45.54068" lon="5.93234">
        <ele>522</ele>
      </rtept>
      <rtept lat="45.54219" lon="5.93247">
        <ele>514</ele>
      </rtept>
      <rtept lat="45.54355" lon="5.93232">
        <ele>512</ele>
      </rtept>
      <rtept lat="45.54489" lon="5.9326">
        <ele>508</ele>
      </rtept>
      <rtept lat="45.54636" lon="5.93249">
        <ele>510</ele>
      </rtept>
      <rtept lat="45.54758" lon="5.93249">
        <ele>510</ele>
      </rtept>
      <rtept lat="45.54818" lon="5.93298">
        <ele>507</ele>
      </rtept>
      <rtept lat="45.54796" lon="5.93418">
        <ele>496</ele>
      </rtept>
      <rtept lat="45.5491" lon="5.93433">
        <ele>483</ele>
      </rtept>
      <rtept lat="45.55126" lon="5.9341">
        <ele>463</ele>
      </rtept>
      <rtept lat="45.55256" lon="5.93453">
        <ele>444</ele>
      </rtept>
      <rtept lat="45.55329" lon="5.93558">
        <ele>430</ele>
      </rtept>
      <rtept lat="45.55222" lon="5.93642">
        <ele>415</ele>
      </rtept>
      <rtept lat="45.55195" lon="5.93811">
        <ele>375</ele>
      </rtept>
    </rte>
  <rte>
    <name><![CDATA[10 févr. 2019 à 15:15:48]]></name>
    <cmt><![CDATA[10 févr. 2019 à 15:15:48]]></cmt>
    <desc><![CDATA[{DC1}Heure de fin	: 00:09:21
Durée totale	: -17690439h44:12
Moyenne globale	: -
Pente moyenne	: nan %
Aire incluse	: 0.0000 ha
Détails par segments
distance  | durée    | vit.moy. | vit.max. | déniv. + | déniv -
   km     | hh:mn:ss |   km/h   |   km/h   |    m     |    m
     0.00 | 00:00:00 |      0.0 |      0.0 |        0 |        0{DC2}]]></desc>
      <rtept lat="45.5175" lon="5.93483">
        <ele>732.3</ele>
      </rtept>
    </rte>
  <rte>
    <name><![CDATA[10 févr. 2019 à 15:06:08]]></name>
    <cmt><![CDATA[10 févr. 2019 à 15:06:08]]></cmt>
    <desc><![CDATA[{DC1}Heure de fin	: 
Durée totale	: 0h00:00
Moyenne globale	: -
Pente moyenne	: 8.03 %
Aire incluse	: 204.0794 ha
Détails par segments
distance  | durée    | vit.moy. | vit.max. | déniv. + | déniv -
   km     | hh:mn:ss |   km/h   |   km/h   |    m     |    m
    12.88 | 00:00:00 |      0.0 |      0.0 |        0 |        0{DC2}]]></desc>
      <rtept lat="45.5509" lon="5.9394">
        <ele>368</ele>
      </rtept>
      <rtept lat="45.55217" lon="5.93791">
        <ele>377</ele>
      </rtept>
    </rte>
  <rte>
    <name><![CDATA[10 févr. 2019 à 14:22:06]]></name>
    <cmt><![CDATA[10 févr. 2019 à 14:22:06]]></cmt>
    <desc><![CDATA[{DC1}Heure de fin	: 00:09:21
Durée totale	: -17690438h37:54
Moyenne globale	: -
Pente moyenne	: 5.62 %
Aire incluse	: 5.7967 ha
Détails par segments
distance  | durée    | vit.moy. | vit.max. | déniv. + | déniv -
   km     | hh:mn:ss |   km/h   |   km/h   |    m     |    m
     3.30 | 00:00:00 |      0.0 |      0.0 |        0 |        0{DC2}]]></desc>
      <rtept lat="45.55169" lon="5.93089">
        <ele>415</ele>
      </rtept>
      <rtept lat="45.5518" lon="5.93905">
        <ele>366</ele>
      </rtept>
    </rte>
  <rte>
    <name><![CDATA[10 févr. 2019 à 09:50:45]]></name>
    <cmt><![CDATA[10 févr. 2019 à 09:50:45]]></cmt>
    <desc><![CDATA[{DC1}Heure de fin	: 00:09:21
Durée totale	: -17690433h09:14
Moyenne globale	: -
Pente moyenne	: 0.00 %
Aire incluse	: 50.7119 ha
Détails par segments
distance  | durée    | vit.moy. | vit.max. | déniv. + | déniv -
   km     | hh:mn:ss |   km/h   |   km/h   |    m     |    m
     4.33 | 00:00:00 |      0.0 |      0.0 |        0 |        0{DC2}]]></desc>
      <rtept lat="45.5503" lon="5.93918">
        <ele>373.6</ele>
      </rtept>
      <rtept lat="45.55191" lon="5.93893">
        <ele>366.7</ele>
      </rtept>
    </rte>
  <rte>
    <name><![CDATA[10 févr. 2019 à 09:07:08]]></name>
    <cmt><![CDATA[10 févr. 2019 à 09:07:08]]></cmt>
    <desc><![CDATA[{DC1}Heure de fin	: 00:09:21
Durée totale	: -17690433h52:52
Moyenne globale	: -
Pente moyenne	: nan %
Aire incluse	: 0.0000 ha
Détails par segments
distance  | durée    | vit.moy. | vit.max. | déniv. + | déniv -
   km     | hh:mn:ss |   km/h   |   km/h   |    m     |    m
     0.00 | 00:00:00 |      0.0 |      0.0 |        0 |        0{DC2}]]></desc>
      <rtept lat="45.55102" lon="5.93919">
        <ele>370.1</ele>
      </rtept>
    </rte>
  <rte>
    <name><![CDATA[10 févr. 2019 à 09:02:25]]></name>
    <cmt><![CDATA[10 févr. 2019 à 09:02:25]]></cmt>
    <desc><![CDATA[{DC1}Heure de fin	: 00:09:21
Durée totale	: -17690433h57:35
Moyenne globale	: -
Pente moyenne	: nan %
Aire incluse	: 0.0000 ha
Détails par segments
distance  | durée    | vit.moy. | vit.max. | déniv. + | déniv -
   km     | hh:mn:ss |   km/h   |   km/h   |    m     |    m
     0.00 | 00:00:00 |      0.0 |      0.0 |        0 |        0{DC2}]]></desc>
      <rtept lat="45.55207" lon="5.93813">
        <ele>375.2</ele>
      </rtept>
    </rte>
  <rte>
    <name><![CDATA[10 févr. 2019 à 09:00:27]]></name>
    <cmt><![CDATA[10 févr. 2019 à 09:00:27]]></cmt>
    <desc><![CDATA[{DC1}Heure de fin	: 00:09:21
Durée totale	: -17690433h59:32
Moyenne globale	: -
Pente moyenne	: nan %
Aire incluse	: 0.0000 ha
Détails par segments
distance  | durée    | vit.moy. | vit.max. | déniv. + | déniv -
   km     | hh:mn:ss |   km/h   |   km/h   |    m     |    m
     0.00 | 00:00:00 |      0.0 |      0.0 |        0 |        0{DC2}]]></desc>
      <rtept lat="45.55244" lon="5.93858">
        <ele>366.6</ele>
      </rtept>
    </rte>
</gpx>